Flight Track Log - Related Links

Times and Time Zones

All times are in EDT time to prevent confusion due to time zone crossing. See the AAL832 flight status page for this flight to view local times or setup timezone preferences in your user account.


Time Position Orientation Groundspeed Altitude Reporting Facility
EDT Latitude Longitude Course Direction KTS MPH feet Rate Location/Type
Sun 01:12:16 PM 33.9336 -118.4442 59° Northeast 180 207 1,400  Level Los Angeles Center
Sun 01:13:18 PM 33.9153 -118.5231 254° West 231 266 2,700 1,742 Climbing Los Angeles Center
Sun 01:14:00 PM 34.1403 -118.0528 59° Northeast  Level FlightAware Approximate
Sun 01:14:20 PM 33.8808 -118.6022 242° Southwest 270 311 5,000  Level Los Angeles Center
Sun 01:15:00 PM 34.2092 -117.9150 59° Northeast  Level FlightAware Approximate
Sun 01:15:22 PM 33.8211 -118.5789 162° South 291 335 6,700  Level Los Angeles Center
Sun 01:16:00 PM 34.2866 -117.7946 54° Northeast  Level FlightAware Approximate
Sun 01:16:24 PM 33.8458 -118.4986 70° East 302 348 9,000  Level Los Angeles Center
Sun 01:17:00 PM 34.3611 -117.6611 59° Northeast  Level FlightAware Approximate
Sun 01:17:26 PM 33.9217 -118.4428 31° Northeast 303 349 10,800  Level Los Angeles Center
Sun 01:18:29 PM 33.9936 -118.3261 53° Northeast 360 414 12,600 1,968 Climbing Los Angeles Center
Sun 01:19:31 PM 34.0536 -118.2211 55° Northeast 374 430 14,900 2,129 Climbing Los Angeles Center
Sun 01:20:33 PM 34.1167 -118.1100 56° Northeast 394 453 17,000 1,951 Climbing Los Angeles Center
Sun 01:21:34 PM 34.1681 -118.0183 56° Northeast 407 468 18,900 2,177 Climbing Los Angeles Center
Sun 01:22:37 PM 34.2464 -117.8800 56° Northeast 414 476 21,500 2,304 Climbing Los Angeles Center
Sun 01:23:39 PM 34.3286 -117.7375 55° Northeast 430 495 23,700 1,790 Climbing Los Angeles Center
Sun 01:24:41 PM 34.3992 -117.6403 49° Northeast 444 511 25,200 1,500 Climbing Los Angeles Center
Sun 01:25:43 PM 34.4975 -117.5000 50° Northeast 456 525 26,800 1,355 Climbing Los Angeles Center
Sun 01:26:45 PM 34.5811 -117.3772 50° Northeast 471 542 28,000 1,113 Climbing Los Angeles Center
Sun 01:27:47 PM 34.6683 -117.2519 50° Northeast 485 558 29,100 1,200 Climbing Los Angeles Center
Sun 01:28:50 PM 34.7564 -117.1242 50° Northeast 494 568 30,500 1,200 Climbing Los Angeles Center
Sun 01:29:52 PM 34.8464 -116.9947 50° Northeast 503 579 31,600 1,210 Climbing Los Angeles Center
Sun 01:30:54 PM 34.9547 -116.8358 50° Northeast 510 587 33,000 1,210 Climbing Los Angeles Center
Sun 01:31:56 PM 35.0464 -116.7019 50° Northeast 516 594 34,100 968 Climbing Los Angeles Center
Sun 01:32:58 PM 35.1369 -116.5681 50° Northeast 515 593 35,000 794 Climbing Los Angeles Center
Sun 01:34:12 PM 35.2283 -116.4336 50° Northeast 516 594 35,900 832 Climbing Los Angeles Center
Sun 01:35:15 PM 35.3406 -116.2706 50° Northeast 523 602 36,900 482 Climbing Los Angeles Center
Sun 01:36:29 PM 35.4492 -116.1058 51° Northeast 521 600 37,000 44 Climbing Los Angeles Center
Sun 01:37:31 PM 35.5631 -115.9400 50° Northeast 530 610 37,000  Level Los Angeles Center
Sun 01:38:33 PM 35.6636 -115.7883 51° Northeast 532 612 37,000  Level Los Angeles Center
Sun 01:39:35 PM 35.7572 -115.6469 51° Northeast 534 615 37,000  Level Los Angeles Center
Sun 01:40:37 PM 35.8497 -115.5089 50° Northeast 529 609 37,000  Level Los Angeles Center
Sun 01:41:40 PM 35.9428 -115.3658 51° Northeast 537 618 37,000  Level Los Angeles Center
Sun 01:42:42 PM 36.0489 -115.2011 51° Northeast 521 600 37,000  Level Los Angeles Center
Sun 01:43:44 PM 36.1200 -115.0447 61° Northeast 528 608 37,000  Level Los Angeles Center
Sun 01:44:46 PM 36.1900 -114.8864 61° Northeast 526 605 37,000  Level Los Angeles Center
Sun 01:45:48 PM 36.2578 -114.7253 62° Northeast 530 610 37,000  Level Los Angeles Center
Sun 01:47:02 PM 36.3278 -114.5642 62° Northeast 533 613 37,000  Level Los Angeles Center
Sun 01:48:04 PM 36.3967 -114.4025 62° Northeast 532 612 37,000  Level Los Angeles Center
Sun 01:49:07 PM 36.4939 -114.1769 62° Northeast 531 611 37,000  Level Los Angeles Center
Sun 01:50:09 PM 36.5592 -114.0244 62° Northeast 535 616 37,000  Level Los Angeles Center
Sun 01:51:11 PM 36.6269 -113.8644 62° Northeast 525 604 37,000  Level Los Angeles Center
Sun 01:52:13 PM 36.7089 -113.6681 62° Northeast 534 615 37,000  Level Los Angeles Center
Sun 01:53:15 PM 36.7772 -113.5069 62° Northeast 527 606 37,000  Level Los Angeles Center
Sun 01:54:17 PM 36.8444 -113.3447 63° Northeast 524 603 37,000  Level Los Angeles Center
Sun 01:55:32 PM 36.9253 -113.1506 62° Northeast 527 606 37,000  Level Los Angeles Center
Sun 01:56:34 PM 36.9922 -112.9900 62° Northeast 526 605 37,000  Level Los Angeles Center
Sun 01:57:36 PM 37.0703 -112.7958 63° Northeast 526 605 37,000  Level Los Angeles Center
Sun 01:58:38 PM 37.1361 -112.6356 63° Northeast 524 603 37,000  Level Los Angeles Center
Sun 01:59:41 PM 37.2022 -112.4750 63° Northeast 524 603 37,000  Level Los Angeles Center
Sun 02:00:43 PM 37.2667 -112.3142 63° Northeast 523 602 37,000  Level Los Angeles Center
Sun 02:01:45 PM 37.3322 -112.1519 63° Northeast 525 604 37,000  Level Los Angeles Center
Sun 02:02:47 PM 37.4092 -111.9575 63° Northeast 523 602 37,000  Level Los Angeles Center
Sun 02:03:49 PM 37.4761 -111.7958 62° Northeast 524 603 37,000  Level Los Angeles Center
Sun 02:04:51 PM 37.5386 -111.6361 64° Northeast 516 594 37,000  Level Los Angeles Center
Sun 02:06:02 PM 37.6114 -111.4425 65° Northeast 515 593 37,000  Level Salt Lake Center
Sun 02:07:04 PM 37.6747 -111.2817 64° Northeast 514 592 37,000  Level Salt Lake Center
Sun 02:08:06 PM 37.7378 -111.1200 64° Northeast 514 592 37,000  Level Salt Lake Center
Sun 02:09:08 PM 37.7994 -110.9567 64° Northeast 516 594 37,000  Level Salt Lake Center
Sun 02:10:10 PM 37.8753 -110.7628 64° Northeast 515 593 37,000  Level Salt Lake Center
Sun 02:11:12 PM 37.9394 -110.5917 65° Northeast 515 593 37,000  Level Salt Lake Center
Sun 02:12:14 PM 37.9997 -110.4342 64° Northeast 518 596 37,000  Level Salt Lake Center
Sun 02:13:16 PM 38.0708 -110.2517 64° Northeast 517 595 37,000  Level Salt Lake Center
Sun 02:14:18 PM 38.1294 -110.0931 65° Northeast 518 596 37,000  Level Salt Lake Center
Sun 02:15:20 PM 38.1978 -109.9092 65° Northeast 518 596 37,000  Level Salt Lake Center
Sun 02:16:22 PM 38.2392 -109.7425 72° East 516 594 37,000  Level Salt Lake Center
Sun 02:17:24 PM 38.2828 -109.5769 71° East 516 594 37,000  Level Salt Lake Center
Sun 02:18:26 PM 38.3347 -109.3850 71° East 515 593 37,000  Level Salt Lake Center
Sun 02:19:28 PM 38.3772 -109.2208 72° East 513 590 37,000  Level Salt Lake Center
Sun 02:20:30 PM 38.4278 -109.0281 71° East 513 590 37,000  Level Salt Lake Center
Sun 02:21:49 PM 38.4858 -108.8097 71° East 507 583 37,000  Level Denver Center
Sun 02:22:51 PM 38.5436 -108.6203 69° East 514 592 37,000  Level Denver Center
Sun 02:23:53 PM 38.6025 -108.4675 64° Northeast 505 581 37,000  Level Denver Center
Sun 02:24:55 PM 38.6692 -108.2839 65° Northeast 509 586 37,000  Level Denver Center
Sun 02:25:57 PM 38.7261 -108.1239 65° Northeast 513 590 37,000  Level Denver Center
Sun 02:26:59 PM 38.7914 -107.9397 65° Northeast 510 587 37,000  Level Denver Center
Sun 02:28:01 PM 38.8483 -107.7808 65° Northeast 513 590 37,000  Level Denver Center
Sun 02:29:03 PM 38.9150 -107.5967 65° Northeast 511 588 37,000  Level Denver Center
Sun 02:30:05 PM 38.9714 -107.4372 65° Northeast 513 590 37,000  Level Denver Center
Sun 02:31:20 PM 39.0444 -107.2264 66° East 509 586 37,000  Level Denver Center
Sun 02:32:22 PM 39.1006 -107.0658 66° East 512 589 37,000  Level Denver Center
Sun 02:33:24 PM 39.1650 -106.8792 66° East 511 588 37,000 145 Level Denver Center
Sun 02:34:26 PM 39.2197 -106.7186 66° East 514 592 37,300 581 Climbing Denver Center
Sun 02:35:28 PM 39.2850 -106.5297 66° East 515 593 38,200 726 Climbing Denver Center
Sun 02:36:30 PM 39.3397 -106.3681 66° East 513 590 38,800 387 Climbing Denver Center
Sun 02:37:32 PM 39.4044 -106.1781 66° East 518 596 39,000 97 Climbing Denver Center
Sun 02:38:34 PM 39.4642 -105.9983 67° East 521 600 39,000  Level Denver Center
Sun 02:39:36 PM 39.5219 -105.8281 66° East 518 596 39,000  Level Denver Center
Sun 02:40:39 PM 39.5806 -105.6544 66° East 520 598 39,000  Level Denver Center
Sun 02:41:41 PM 39.6369 -105.4822 67° East 515 593 39,000  Level Denver Center
Sun 02:42:43 PM 39.6925 -105.3094 67° East 521 600 39,000  Level Denver Center
Sun 02:43:45 PM 39.7469 -105.1392 67° East 510 587 39,000  Level Denver Center
Sun 02:44:47 PM 39.8028 -104.9667 67° East 510 587 39,000  Level Denver Center
Sun 02:45:49 PM 39.8708 -104.7597 67° East 510 587 39,000  Level Denver Center
Sun 02:46:51 PM 39.9267 -104.5814 68° East 522 601 39,000  Level Denver Center
Sun 02:47:53 PM 39.9797 -104.4089 68° East 503 579 39,000  Level Denver Center
Sun 02:48:55 PM 40.0342 -104.2331 68° East 517 595 39,000  Level Denver Center
Sun 02:49:57 PM 40.0881 -104.0592 68° East 521 600 39,000  Level Denver Center
Sun 02:50:59 PM 40.1414 -103.8861 68° East 511 588 39,000  Level Denver Center
Sun 02:52:01 PM 40.1844 -103.7478 68° East 528 608 39,000  Level Denver Center
Sun 02:53:04 PM 40.2603 -103.5067 68° East 517 595 39,000  Level Denver Center
Sun 02:54:06 PM 40.3131 -103.3308 68° East 519 597 39,000  Level Denver Center
Sun 02:55:08 PM 40.3661 -103.1553 68° East 519 597 39,000  Level Denver Center
Sun 02:56:10 PM 40.4192 -102.9797 68° East 519 597 39,000  Level Denver Center
Sun 02:57:12 PM 40.4703 -102.8044 69° East 515 593 39,000  Level Denver Center
Sun 02:58:14 PM 40.5256 -102.6194 68° East 517 595 39,000  Level Denver Center
Sun 02:59:16 PM 40.5833 -102.4244 69° East 513 590 39,000  Level Denver Center
Sun 03:00:18 PM 40.6322 -102.2561 69° East 513 590 39,000  Level Denver Center
Sun 03:01:20 PM 40.6911 -102.0600 68° East 515 593 39,000  Level Denver Center
Sun 03:02:22 PM 40.7325 -101.9194 69° East 516 594 39,000  Level Denver Center
Sun 03:03:24 PM 40.7967 -101.6922 69° East 517 595 39,000  Level Denver Center
Sun 03:04:26 PM 40.8378 -101.5492 69° East 520 598 39,000  Level Denver Center
Sun 03:05:29 PM 40.9019 -101.3214 69° East 519 597 39,000  Level Denver Center
Sun 03:06:31 PM 40.9500 -101.1489 70° East 519 597 39,000  Level Denver Center
Sun 03:07:33 PM 40.9992 -100.9775 69° East 517 595 39,000  Level Denver Center
Sun 03:08:35 PM 41.0561 -100.7725 70° East 521 600 39,000  Level Denver Center
Sun 03:09:37 PM 41.1039 -100.5969 70° East 522 601 39,000  Level Denver Center
Sun 03:10:39 PM 41.1578 -100.3958 70° East 517 595 39,000  Level Denver Center
Sun 03:11:41 PM 41.2050 -100.2233 70° East 518 596 39,000  Level Denver Center
Sun 03:12:43 PM 41.2506 -100.0503 71° East 518 596 39,000  Level Denver Center
Sun 03:13:45 PM 41.3042 -99.8475 71° East 520 598 39,000  Level Denver Center
Sun 03:14:47 PM 41.3531 -99.6658 70° East 519 597 39,000  Level Denver Center
Sun 03:15:50 PM 41.4011 -99.4836 71° East 519 597 39,000  Level Denver Center
Sun 03:16:52 PM 41.4483 -99.2997 71° East 520 598 39,000  Level Denver Center
Sun 03:17:54 PM 41.4961 -99.1153 71° East 521 600 39,000  Level Denver Center
Sun 03:18:55 PM 41.5339 -98.9669 71° East 521 600 39,000  Level Denver Center
Sun 03:19:44 PM 41.5800 -98.7831 71° East 522 601 39,000  Level Minneapolis Center
Sun 03:20:46 PM 41.6358 -98.5619 71° East 519 597 39,000  Level Minneapolis Center
Sun 03:21:48 PM 41.6819 -98.3764 72° East 521 600 39,000  Level Minneapolis Center
Sun 03:22:50 PM 41.7261 -98.1917 72° East 521 600 39,000  Level Minneapolis Center
Sun 03:23:52 PM 41.7728 -98.0089 71° East 520 598 39,000  Level Minneapolis Center
Sun 03:24:54 PM 41.8175 -97.8256 72° East 518 596 39,000  Level Minneapolis Center
Sun 03:25:56 PM 41.8628 -97.6406 72° East 519 597 39,000  Level Minneapolis Center
Sun 03:26:58 PM 41.9056 -97.4547 73° East 521 600 39,000  Level Minneapolis Center
Sun 03:28:00 PM 41.9506 -97.2672 72° East 523 602 39,000  Level Minneapolis Center
Sun 03:29:14 PM 42.0044 -97.0431 72° East 524 603 39,000  Level Minneapolis Center
Sun 03:30:16 PM 42.0567 -96.8186 73° East 524 603 39,000  Level Minneapolis Center
Sun 03:31:18 PM 42.1003 -96.6311 73° East 523 602 39,000  Level Minneapolis Center
Sun 03:32:20 PM 42.1442 -96.4403 73° East 527 606 39,000  Level Minneapolis Center
Sun 03:33:22 PM 42.1869 -96.2544 73° East 521 600 39,000  Level Minneapolis Center
Sun 03:34:24 PM 42.2286 -96.0678 73° East 518 596 39,000  Level Minneapolis Center
Sun 03:35:26 PM 42.2697 -95.8800 73° East 519 597 39,000  Level Minneapolis Center
Sun 03:36:28 PM 42.3200 -95.6578 73° East 516 594 39,000  Level Minneapolis Center
Sun 03:37:30 PM 42.3597 -95.4711 74° East 516 594 39,000  Level Minneapolis Center
Sun 03:38:32 PM 42.4006 -95.2844 73° East 516 594 39,000  Level Minneapolis Center
Sun 03:39:34 PM 42.4414 -95.1006 73° East 512 589 39,000  Level Minneapolis Center
Sun 03:40:36 PM 42.4803 -94.9153 74° East 511 588 39,000  Level Minneapolis Center
Sun 03:41:38 PM 42.5200 -94.7306 74° East 510 587 39,000  Level Minneapolis Center
Sun 03:42:39 PM 42.5533 -94.5642 75° East 512 589 39,000  Level Minneapolis Center
Sun 03:43:41 PM 42.5989 -94.3417 74° East 513 590 39,000  Level Minneapolis Center
Sun 03:44:43 PM 42.6061 -94.1519 87° East 508 585 39,000  Level Minneapolis Center
Sun 03:45:45 PM 42.5989 -93.9583 93° East 515 593 39,000  Level Minneapolis Center
Sun 03:46:47 PM 42.5917 -93.7292 92° East 514 592 39,000  Level Minneapolis Center
Sun 03:47:49 PM 42.5853 -93.5353 92° East 516 594 39,000  Level Minneapolis Center
Sun 03:48:51 PM 42.5792 -93.3425 92° East 517 595 39,000  Level Minneapolis Center
Sun 03:49:53 PM 42.5717 -93.1500 93° East 517 595 39,000  Level Minneapolis Center
Sun 03:50:55 PM 42.5636 -92.9575 93° East 517 595 39,000  Level Minneapolis Center
Sun 03:52:13 PM 42.5517 -92.6858 93° East 519 597 39,000 -43 Level Chicago Center
Sun 03:53:16 PM 42.5436 -92.4936 93° East 516 594 38,900 -528 Descending Chicago Center
Sun 03:54:18 PM 42.5353 -92.3019 93° East 517 595 37,900 -1,016 Descending Chicago Center
Sun 03:55:20 PM 42.5236 -92.0708 94° East 520 598 36,800 -1,016 Descending Chicago Center
Sun 03:56:22 PM 42.5242 -91.8764 90° East 524 603 35,800 -919 Descending Chicago Center
Sun 03:57:24 PM 42.5253 -91.6817 89° East 528 608 34,900 -968 Descending Chicago Center
Sun 03:58:26 PM 42.5258 -91.4464 90° East 534 615 33,800 -1,016 Descending Chicago Center
Sun 03:59:28 PM 42.5261 -91.2514 90° East 530 610 32,800 -919 Descending Chicago Center
Sun 04:00:30 PM 42.5258 -91.0544 90° East 533 613 31,900 -919 Descending Chicago Center
Sun 04:01:32 PM 42.5253 -90.8558 90° East 534 615 30,900 -968 Descending Chicago Center
Sun 04:02:34 PM 42.5244 -90.6617 90° East 524 603 29,900 -1,065 Descending Chicago Center
Sun 04:03:36 PM 42.5225 -90.4314 91° East 516 594 28,700 -1,008 Descending Chicago Center
Sun 04:04:39 PM 42.5111 -90.2383 95° East 518 596 27,800 -912 Descending Chicago Center
Sun 04:05:41 PM 42.4975 -90.0481 95° East 515 593 26,800 -968 Descending Chicago Center
Sun 04:06:43 PM 42.4811 -89.8447 96° East 522 601 25,800 -1,016 Descending Chicago Center
Sun 04:07:45 PM 42.4642 -89.6161 96° East 525 604 24,700 -1,016 Descending Chicago Center
Sun 04:08:47 PM 42.4494 -89.4225 96° East 518 596 23,700 -1,742 Descending Chicago Center
Sun 04:09:49 PM 42.4344 -89.2358 96° East 504 580 21,100 -2,565 Descending Chicago Center
Sun 04:10:51 PM 42.4203 -89.0578 96° East 482 555 18,400 -2,613 Descending Chicago Center
Sun 04:11:53 PM 42.4078 -88.8875 96° East 460 529 15,700 -2,806 Descending Chicago Center
Sun 04:12:55 PM 42.3911 -88.6975 97° East 436 502 12,600 -2,661 Descending Chicago Center
Sun 04:13:57 PM 42.3786 -88.5411 96° East 423 487 10,200 -1,258 Descending Chicago Center
Sun 04:14:59 PM 42.3481 -88.4083 107° East 373 429 10,000 -97 Descending Chicago Center
Sun 04:16:01 PM 42.2911 -88.3047 127° Southeast 360 414 10,000  Level Chicago Center
Sun 04:17:03 PM 42.2222 -88.2106 135° Southeast 356 410 10,000 -48 Level Chicago Center
Sun 04:18:06 PM 42.1328 -88.1039 138° Southeast 358 412 9,900  Descending Chicago Center
Sun 04:18:46 PM 42.0833 -88.0500 141° Southeast 326 375 10,000 -660 Climbing Chicago TRACON
Sun 04:19:46 PM 42.0167 -87.9667 137° Southeast 310 357 8,800 -1,150 Descending Chicago TRACON
Sun 04:20:46 PM 41.9500 -87.8833 137° Southeast 349 402 7,700 -900 Descending Chicago TRACON
Sun 04:21:46 PM 41.9000 -87.8167 135° Southeast 257 296 7,000 -850 Descending Chicago TRACON
Sun 04:22:46 PM 41.9000 -87.7333 90° East 218 251 6,000 -1,200 Descending Chicago TRACON
Sun 04:23:16 PM 41.9206 -87.6961 53° Northeast 214 246 5,200 -1,871 Descending Chicago Center
Sun 04:24:19 PM 41.9586 -87.7281 328° Northwest 188 216 3,100 -1,597 Descending Chicago Center
Sun 04:25:20 PM 41.9697 -87.7911 283° West 181 208 1,900 -976 Descending Chicago Center
Sun 04:26:22 PM 41.9692 -87.8494 269° West 169 194 1,100 -774 Descending Chicago Center

Login

Don't have an account? Register now (free) for customized features, flight alerts, and more!